sensor_id;sensor_type;location;lat;lon;timestamp;temperature;humidity
5419;DHT22;2732;52.092;11.556;2023-12-20T00:04:02;6.30;99.90
5419;DHT22;2732;52.092;11.556;2023-12-20T00:09:03;6.20;99.90
5419;DHT22;2732;52.092;11.556;2023-12-20T00:14:04;6.20;99.90
5419;DHT22;2732;52.092;11.556;2023-12-20T00:19:04;6.20;99.90
5419;DHT22;2732;52.092;11.556;2023-12-20T00:24:05;6.20;99.90
5419;DHT22;2732;52.092;11.556;2023-12-20T00:29:06;6.20;99.90
5419;DHT22;2732;52.092;11.556;2023-12-20T00:34:06;6.20;99.90
5419;DHT22;2732;52.092;11.556;2023-12-20T00:39:07;6.20;99.90
5419;DHT22;2732;52.092;11.556;2023-12-20T00:44:07;6.20;99.90
5419;DHT22;2732;52.092;11.556;2023-12-20T00:49:08;6.20;99.90
5419;DHT22;2732;52.092;11.556;2023-12-20T00:54:08;6.20;99.90
5419;DHT22;2732;52.092;11.556;2023-12-20T00:59:09;6.20;99.90
5419;DHT22;2732;52.092;11.556;2023-12-20T01:04:10;6.20;99.90
5419;DHT22;2732;52.092;11.556;2023-12-20T01:09:10;6.20;99.90
5419;DHT22;2732;52.092;11.556;2023-12-20T01:14:11;6.20;99.90
5419;DHT22;2732;52.092;11.556;2023-12-20T01:19:13;6.20;99.90
5419;DHT22;2732;52.092;11.556;2023-12-20T01:24:14;6.20;99.90
5419;DHT22;2732;52.092;11.556;2023-12-20T01:29:14;6.20;99.90
5419;DHT22;2732;52.092;11.556;2023-12-20T01:34:16;6.20;99.90
5419;DHT22;2732;52.092;11.556;2023-12-20T01:39:17;6.20;99.90
5419;DHT22;2732;52.092;11.556;2023-12-20T01:44:18;6.20;99.90
5419;DHT22;2732;52.092;11.556;2023-12-20T01:49:18;6.30;99.90
5419;DHT22;2732;52.092;11.556;2023-12-20T01:54:20;6.30;99.90
5419;DHT22;2732;52.092;11.556;2023-12-20T01:59:21;6.30;99.90
5419;DHT22;2732;52.092;11.556;2023-12-20T02:04:22;6.30;99.90
5419;DHT22;2732;52.092;11.556;2023-12-20T02:09:23;6.30;99.90
5419;DHT22;2732;52.092;11.556;2023-12-20T02:14:23;6.20;99.90
5419;DHT22;2732;52.092;11.556;2023-12-20T02:19:24;6.20;99.90
5419;DHT22;2732;52.092;11.556;2023-12-20T02:24:25;6.20;99.90
5419;DHT22;2732;52.092;11.556;2023-12-20T02:29:26;6.20;99.90
5419;DHT22;2732;52.092;11.556;2023-12-20T02:34:27;6.20;99.90
5419;DHT22;2732;52.092;11.556;2023-12-20T02:39:27;6.20;99.90
5419;DHT22;2732;52.092;11.556;2023-12-20T02:44:28;6.10;99.90
5419;DHT22;2732;52.092;11.556;2023-12-20T02:49:28;6.10;99.90
5419;DHT22;2732;52.092;11.556;2023-12-20T02:54:29;6.10;99.90
5419;DHT22;2732;52.092;11.556;2023-12-20T02:59:29;6.10;99.90
5419;DHT22;2732;52.092;11.556;2023-12-20T03:04:30;6.10;99.90
5419;DHT22;2732;52.092;11.556;2023-12-20T03:09:30;6.00;99.90
5419;DHT22;2732;52.092;11.556;2023-12-20T03:14:31;6.00;99.90
5419;DHT22;2732;52.092;11.556;2023-12-20T03:19:32;5.90;99.90
5419;DHT22;2732;52.092;11.556;2023-12-20T03:24:32;5.90;99.90
5419;DHT22;2732;52.092;11.556;2023-12-20T03:29:33;5.80;99.90
5419;DHT22;2732;52.092;11.556;2023-12-20T03:34:33;5.80;99.90
5419;DHT22;2732;52.092;11.556;2023-12-20T03:39:34;5.80;99.90
5419;DHT22;2732;52.092;11.556;2023-12-20T03:44:34;5.70;99.90
5419;DHT22;2732;52.092;11.556;2023-12-20T03:49:35;5.70;99.90
5419;DHT22;2732;52.092;11.556;2023-12-20T03:54:37;5.60;99.90
5419;DHT22;2732;52.092;11.556;2023-12-20T03:59:38;5.50;99.90
5419;DHT22;2732;52.092;11.556;2023-12-20T04:04:39;5.40;99.90
5419;DHT22;2732;52.092;11.556;2023-12-20T04:09:40;5.40;99.90
5419;DHT22;2732;52.092;11.556;2023-12-20T04:14:41;5.30;99.90
5419;DHT22;2732;52.092;11.556;2023-12-20T04:19:42;5.30;99.90
5419;DHT22;2732;52.092;11.556;2023-12-20T04:24:43;5.20;99.90
5419;DHT22;2732;52.092;11.556;2023-12-20T04:29:43;5.10;99.90
5419;DHT22;2732;52.092;11.556;2023-12-20T04:34:44;5.10;99.90
5419;DHT22;2732;52.092;11.556;2023-12-20T04:39:44;5.00;99.90
5419;DHT22;2732;52.092;11.556;2023-12-20T04:44:45;5.00;99.90
5419;DHT22;2732;52.092;11.556;2023-12-20T04:49:46;5.00;99.90
5419;DHT22;2732;52.092;11.556;2023-12-20T04:54:46;4.90;99.90
5419;DHT22;2732;52.092;11.556;2023-12-20T04:59:47;4.80;99.90
5419;DHT22;2732;52.092;11.556;2023-12-20T05:04:47;4.80;99.90
5419;DHT22;2732;52.092;11.556;2023-12-20T05:09:48;4.70;99.90
5419;DHT22;2732;52.092;11.556;2023-12-20T05:14:48;4.70;99.90
5419;DHT22;2732;52.092;11.556;2023-12-20T05:19:49;4.60;99.90
5419;DHT22;2732;52.092;11.556;2023-12-20T05:24:50;4.60;99.90
5419;DHT22;2732;52.092;11.556;2023-12-20T05:29:50;4.50;99.90
5419;DHT22;2732;52.092;11.556;2023-12-20T05:34:51;4.50;99.90
5419;DHT22;2732;52.092;11.556;2023-12-20T05:39:51;4.40;99.90
5419;DHT22;2732;52.092;11.556;2023-12-20T05:44:52;4.40;99.90
5419;DHT22;2732;52.092;11.556;2023-12-20T05:49:53;4.40;99.90
5419;DHT22;2732;52.092;11.556;2023-12-20T05:54:53;4.40;99.90
5419;DHT22;2732;52.092;11.556;2023-12-20T05:59:54;4.40;99.90
5419;DHT22;2732;52.092;11.556;2023-12-20T06:04:55;4.50;99.90
5419;DHT22;2732;52.092;11.556;2023-12-20T06:09:55;4.50;99.90
5419;DHT22;2732;52.092;11.556;2023-12-20T06:14:56;4.50;99.90
5419;DHT22;2732;52.092;11.556;2023-12-20T06:19:57;4.50;99.90
5419;DHT22;2732;52.092;11.556;2023-12-20T06:24:58;4.50;99.90
5419;DHT22;2732;52.092;11.556;2023-12-20T06:29:59;4.50;99.90
5419;DHT22;2732;52.092;11.556;2023-12-20T06:35:00;4.50;99.90
5419;DHT22;2732;52.092;11.556;2023-12-20T06:40:00;4.60;99.90
5419;DHT22;2732;52.092;11.556;2023-12-20T06:45:01;4.60;99.90
5419;DHT22;2732;52.092;11.556;2023-12-20T06:50:02;4.60;99.90
5419;DHT22;2732;52.092;11.556;2023-12-20T06:55:03;4.60;99.90
5419;DHT22;2732;52.092;11.556;2023-12-20T07:00:05;4.60;99.90
5419;DHT22;2732;52.092;11.556;2023-12-20T07:05:09;4.60;99.90
5419;DHT22;2732;52.092;11.556;2023-12-20T07:10:09;4.70;99.90
5419;DHT22;2732;52.092;11.556;2023-12-20T07:15:10;4.70;99.90
5419;DHT22;2732;52.092;11.556;2023-12-20T07:20:11;4.70;99.90
5419;DHT22;2732;52.092;11.556;2023-12-20T07:25:12;4.80;99.90
5419;DHT22;2732;52.092;11.556;2023-12-20T07:30:13;4.80;99.90
5419;DHT22;2732;52.092;11.556;2023-12-20T07:35:15;4.80;99.90
5419;DHT22;2732;52.092;11.556;2023-12-20T07:40:16;4.80;99.90
5419;DHT22;2732;52.092;11.556;2023-12-20T07:45:17;4.80;99.90
5419;DHT22;2732;52.092;11.556;2023-12-20T07:50:18;4.90;99.90
5419;DHT22;2732;52.092;11.556;2023-12-20T07:55:19;4.90;99.90
5419;DHT22;2732;52.092;11.556;2023-12-20T08:00:19;4.90;99.90
5419;DHT22;2732;52.092;11.556;2023-12-20T08:05:20;5.00;99.90
5419;DHT22;2732;52.092;11.556;2023-12-20T08:10:21;5.00;99.90
5419;DHT22;2732;52.092;11.556;2023-12-20T08:15:21;5.00;99.90
5419;DHT22;2732;52.092;11.556;2023-12-20T08:20:22;5.00;99.90
5419;DHT22;2732;52.092;11.556;2023-12-20T08:25:22;5.10;99.90
5419;DHT22;2732;52.092;11.556;2023-12-20T08:30:23;5.20;99.90
5419;DHT22;2732;52.092;11.556;2023-12-20T08:35:23;5.20;99.90
5419;DHT22;2732;52.092;11.556;2023-12-20T08:40:24;5.30;99.90
5419;DHT22;2732;52.092;11.556;2023-12-20T08:45:25;5.30;99.90
5419;DHT22;2732;52.092;11.556;2023-12-20T08:50:25;5.30;99.90
5419;DHT22;2732;52.092;11.556;2023-12-20T08:55:26;5.30;99.90
5419;DHT22;2732;52.092;11.556;2023-12-20T09:00:28;5.30;99.90
5419;DHT22;2732;52.092;11.556;2023-12-20T09:05:30;5.30;99.90
5419;DHT22;2732;52.092;11.556;2023-12-20T09:10:31;5.40;99.90
5419;DHT22;2732;52.092;11.556;2023-12-20T09:15:31;5.50;99.90
5419;DHT22;2732;52.092;11.556;2023-12-20T09:20:35;5.60;99.90
5419;DHT22;2732;52.092;11.556;2023-12-20T09:25:36;5.70;99.90
5419;DHT22;2732;52.092;11.556;2023-12-20T09:30:36;5.80;99.90
5419;DHT22;2732;52.092;11.556;2023-12-20T09:35:40;5.90;99.90
5419;DHT22;2732;52.092;11.556;2023-12-20T09:40:41;5.90;99.90
5419;DHT22;2732;52.092;11.556;2023-12-20T09:45:46;6.00;99.90
5419;DHT22;2732;52.092;11.556;2023-12-20T09:50:47;6.00;99.90
5419;DHT22;2732;52.092;11.556;2023-12-20T09:55:48;6.20;99.90
5419;DHT22;2732;52.092;11.556;2023-12-20T10:00:50;6.30;99.90
5419;DHT22;2732;52.092;11.556;2023-12-20T10:05:54;6.40;99.90
5419;DHT22;2732;52.092;11.556;2023-12-20T10:10:57;6.50;99.90
5419;DHT22;2732;52.092;11.556;2023-12-20T10:16:02;6.50;99.90
5419;DHT22;2732;52.092;11.556;2023-12-20T10:21:04;6.50;99.90
5419;DHT22;2732;52.092;11.556;2023-12-20T10:26:04;6.50;99.90
5419;DHT22;2732;52.092;11.556;2023-12-20T10:31:05;6.60;99.90
5419;DHT22;2732;52.092;11.556;2023-12-20T10:36:06;6.60;99.90
5419;DHT22;2732;52.092;11.556;2023-12-20T10:41:08;6.70;99.90
5419;DHT22;2732;52.092;11.556;2023-12-20T10:46:10;6.70;99.90
5419;DHT22;2732;52.092;11.556;2023-12-20T10:51:10;6.70;99.90
5419;DHT22;2732;52.092;11.556;2023-12-20T10:56:18;6.60;99.90
5419;DHT22;2732;52.092;11.556;2023-12-20T11:01:19;6.60;99.90
5419;DHT22;2732;52.092;11.556;2023-12-20T11:06:33;6.60;99.90
5419;DHT22;2732;52.092;11.556;2023-12-20T11:11:52;6.70;99.90
5419;DHT22;2732;52.092;11.556;2023-12-20T11:17:09;6.70;99.90
5419;DHT22;2732;52.092;11.556;2023-12-20T11:22:16;6.70;99.90
5419;DHT22;2732;52.092;11.556;2023-12-20T11:27:18;6.90;99.90
5419;DHT22;2732;52.092;11.556;2023-12-20T11:37:30;6.90;99.90
5419;DHT22;2732;52.092;11.556;2023-12-20T11:42:39;7.00;99.90
5419;DHT22;2732;52.092;11.556;2023-12-20T11:47:45;7.00;99.90
5419;DHT22;2732;52.092;11.556;2023-12-20T11:52:47;7.10;99.90
5419;DHT22;2732;52.092;11.556;2023-12-20T11:57:48;7.20;99.90
5419;DHT22;2732;52.092;11.556;2023-12-20T12:02:57;7.30;99.90
5419;DHT22;2732;52.092;11.556;2023-12-20T12:07:59;7.40;99.90
5419;DHT22;2732;52.092;11.556;2023-12-20T12:13:00;7.30;99.90
5419;DHT22;2732;52.092;11.556;2023-12-20T12:18:01;7.30;99.90
5419;DHT22;2732;52.092;11.556;2023-12-20T12:23:03;7.30;99.90
5419;DHT22;2732;52.092;11.556;2023-12-20T12:28:05;7.30;99.90
5419;DHT22;2732;52.092;11.556;2023-12-20T12:33:06;7.30;99.90
5419;DHT22;2732;52.092;11.556;2023-12-20T12:38:07;7.30;99.90
5419;DHT22;2732;52.092;11.556;2023-12-20T12:43:09;7.20;99.90
5419;DHT22;2732;52.092;11.556;2023-12-20T12:48:09;7.20;99.90
5419;DHT22;2732;52.092;11.556;2023-12-20T12:53:10;7.10;99.90
5419;DHT22;2732;52.092;11.556;2023-12-20T12:58:11;7.10;99.90
5419;DHT22;2732;52.092;11.556;2023-12-20T13:03:12;7.10;99.90
5419;DHT22;2732;52.092;11.556;2023-12-20T13:08:13;7.00;99.90
5419;DHT22;2732;52.092;11.556;2023-12-20T13:13:14;7.00;99.90
5419;DHT22;2732;52.092;11.556;2023-12-20T13:18:15;6.90;99.90
5419;DHT22;2732;52.092;11.556;2023-12-20T13:23:17;6.90;99.90
5419;DHT22;2732;52.092;11.556;2023-12-20T13:28:20;6.90;99.90
5419;DHT22;2732;52.092;11.556;2023-12-20T13:33:21;6.90;99.90
5419;DHT22;2732;52.092;11.556;2023-12-20T13:38:22;6.80;99.90
5419;DHT22;2732;52.092;11.556;2023-12-20T13:43:22;6.80;99.90
5419;DHT22;2732;52.092;11.556;2023-12-20T13:48:23;6.80;99.90
5419;DHT22;2732;52.092;11.556;2023-12-20T13:53:24;6.80;99.90
5419;DHT22;2732;52.092;11.556;2023-12-20T13:58:24;6.70;99.90
5419;DHT22;2732;52.092;11.556;2023-12-20T14:03:25;6.70;99.90
5419;DHT22;2732;52.092;11.556;2023-12-20T14:08:25;6.70;99.90
5419;DHT22;2732;52.092;11.556;2023-12-20T14:13:27;6.60;99.90
5419;DHT22;2732;52.092;11.556;2023-12-20T14:18:27;6.50;99.90
5419;DHT22;2732;52.092;11.556;2023-12-20T14:23:29;6.40;99.90
5419;DHT22;2732;52.092;11.556;2023-12-20T14:28:30;6.30;99.90
5419;DHT22;2732;52.092;11.556;2023-12-20T14:33:30;6.20;99.90
5419;DHT22;2732;52.092;11.556;2023-12-20T14:38:32;6.10;99.90
5419;DHT22;2732;52.092;11.556;2023-12-20T14:43:32;6.00;99.90
5419;DHT22;2732;52.092;11.556;2023-12-20T14:48:33;5.90;99.90
5419;DHT22;2732;52.092;11.556;2023-12-20T14:53:34;5.80;99.90
5419;DHT22;2732;52.092;11.556;2023-12-20T14:58:37;5.80;99.90
5419;DHT22;2732;52.092;11.556;2023-12-20T15:03:38;5.70;99.90
5419;DHT22;2732;52.092;11.556;2023-12-20T15:08:40;5.60;99.90
5419;DHT22;2732;52.092;11.556;2023-12-20T15:13:41;5.60;99.90
5419;DHT22;2732;52.092;11.556;2023-12-20T15:18:42;5.50;99.90
5419;DHT22;2732;52.092;11.556;2023-12-20T15:23:43;5.40;99.90
5419;DHT22;2732;52.092;11.556;2023-12-20T15:28:52;5.40;99.90
5419;DHT22;2732;52.092;11.556;2023-12-20T15:33:55;5.30;99.90
5419;DHT22;2732;52.092;11.556;2023-12-20T15:38:55;5.30;99.90
5419;DHT22;2732;52.092;11.556;2023-12-20T15:43:56;5.20;99.90
5419;DHT22;2732;52.092;11.556;2023-12-20T15:48:57;5.20;99.90
5419;DHT22;2732;52.092;11.556;2023-12-20T15:53:57;5.20;99.90
5419;DHT22;2732;52.092;11.556;2023-12-20T15:58:58;5.20;99.90
5419;DHT22;2732;52.092;11.556;2023-12-20T16:04:00;5.20;99.90
5419;DHT22;2732;52.092;11.556;2023-12-20T16:09:01;5.20;99.90
5419;DHT22;2732;52.092;11.556;2023-12-20T16:14:02;5.20;99.90
5419;DHT22;2732;52.092;11.556;2023-12-20T16:19:03;5.20;99.90
5419;DHT22;2732;52.092;11.556;2023-12-20T16:24:03;5.10;99.90
5419;DHT22;2732;52.092;11.556;2023-12-20T16:29:04;5.10;99.90
5419;DHT22;2732;52.092;11.556;2023-12-20T16:34:05;5.10;99.90
5419;DHT22;2732;52.092;11.556;2023-12-20T16:39:05;5.10;99.90
5419;DHT22;2732;52.092;11.556;2023-12-20T16:44:06;5.20;99.90
5419;DHT22;2732;52.092;11.556;2023-12-20T16:49:06;5.20;99.90
5419;DHT22;2732;52.092;11.556;2023-12-20T16:54:07;5.20;99.90
5419;DHT22;2732;52.092;11.556;2023-12-20T16:59:08;5.10;99.90
5419;DHT22;2732;52.092;11.556;2023-12-20T17:04:09;5.10;99.90
5419;DHT22;2732;52.092;11.556;2023-12-20T17:09:10;5.10;99.90
5419;DHT22;2732;52.092;11.556;2023-12-20T17:14:11;5.10;99.90
5419;DHT22;2732;52.092;11.556;2023-12-20T17:19:13;5.10;99.90
5419;DHT22;2732;52.092;11.556;2023-12-20T17:24:13;5.10;99.90
5419;DHT22;2732;52.092;11.556;2023-12-20T17:29:14;5.10;99.90
5419;DHT22;2732;52.092;11.556;2023-12-20T17:34:14;5.10;99.90
5419;DHT22;2732;52.092;11.556;2023-12-20T17:39:15;5.10;99.90
5419;DHT22;2732;52.092;11.556;2023-12-20T17:44:16;5.10;99.90
5419;DHT22;2732;52.092;11.556;2023-12-20T17:49:16;5.10;99.90
5419;DHT22;2732;52.092;11.556;2023-12-20T17:54:19;5.10;99.90
5419;DHT22;2732;52.092;11.556;2023-12-20T17:59:20;5.00;99.90
5419;DHT22;2732;52.092;11.556;2023-12-20T18:04:20;5.00;99.90
5419;DHT22;2732;52.092;11.556;2023-12-20T18:09:23;5.00;99.90
5419;DHT22;2732;52.092;11.556;2023-12-20T18:14:23;5.00;99.90
5419;DHT22;2732;52.092;11.556;2023-12-20T18:19:24;5.00;99.90
5419;DHT22;2732;52.092;11.556;2023-12-20T18:24:25;5.00;99.90
5419;DHT22;2732;52.092;11.556;2023-12-20T18:29:25;5.00;99.90
5419;DHT22;2732;52.092;11.556;2023-12-20T18:34:26;5.00;99.90
5419;DHT22;2732;52.092;11.556;2023-12-20T18:39:26;4.90;99.90
5419;DHT22;2732;52.092;11.556;2023-12-20T18:44:27;4.90;99.90
5419;DHT22;2732;52.092;11.556;2023-12-20T18:49:27;4.90;99.90
5419;DHT22;2732;52.092;11.556;2023-12-20T18:54:28;4.90;99.90
5419;DHT22;2732;52.092;11.556;2023-12-20T18:59:28;4.90;99.90
5419;DHT22;2732;52.092;11.556;2023-12-20T19:04:30;4.90;99.90
5419;DHT22;2732;52.092;11.556;2023-12-20T19:09:30;4.90;99.90
5419;DHT22;2732;52.092;11.556;2023-12-20T19:14:31;4.90;99.90
5419;DHT22;2732;52.092;11.556;2023-12-20T19:19:32;4.80;99.90
5419;DHT22;2732;52.092;11.556;2023-12-20T19:24:32;4.80;99.90
5419;DHT22;2732;52.092;11.556;2023-12-20T19:29:33;4.80;99.90
5419;DHT22;2732;52.092;11.556;2023-12-20T19:34:34;4.80;99.90
5419;DHT22;2732;52.092;11.556;2023-12-20T19:39:35;4.80;99.90
5419;DHT22;2732;52.092;11.556;2023-12-20T19:44:35;4.80;99.90
5419;DHT22;2732;52.092;11.556;2023-12-20T19:49:36;4.80;99.90
5419;DHT22;2732;52.092;11.556;2023-12-20T19:54:37;4.80;99.90
5419;DHT22;2732;52.092;11.556;2023-12-20T19:59:37;4.80;99.90
5419;DHT22;2732;52.092;11.556;2023-12-20T20:04:38;4.80;99.90
5419;DHT22;2732;52.092;11.556;2023-12-20T20:09:39;4.80;99.90
5419;DHT22;2732;52.092;11.556;2023-12-20T20:14:40;4.80;99.90
5419;DHT22;2732;52.092;11.556;2023-12-20T20:19:41;4.90;99.90
5419;DHT22;2732;52.092;11.556;2023-12-20T20:24:41;4.90;99.90
5419;DHT22;2732;52.092;11.556;2023-12-20T20:29:42;4.90;99.90
5419;DHT22;2732;52.092;11.556;2023-12-20T20:34:46;4.90;99.90
5419;DHT22;2732;52.092;11.556;2023-12-20T20:39:46;4.90;99.90
5419;DHT22;2732;52.092;11.556;2023-12-20T20:44:47;4.90;99.90
5419;DHT22;2732;52.092;11.556;2023-12-20T20:49:47;5.00;99.90
5419;DHT22;2732;52.092;11.556;2023-12-20T20:54:48;5.00;99.90
5419;DHT22;2732;52.092;11.556;2023-12-20T20:59:48;5.00;99.90
5419;DHT22;2732;52.092;11.556;2023-12-20T21:04:49;5.00;99.90
5419;DHT22;2732;52.092;11.556;2023-12-20T21:09:50;5.00;99.90
5419;DHT22;2732;52.092;11.556;2023-12-20T21:14:51;5.00;99.90
5419;DHT22;2732;52.092;11.556;2023-12-20T21:19:51;5.00;99.90
5419;DHT22;2732;52.092;11.556;2023-12-20T21:24:52;5.00;99.90
5419;DHT22;2732;52.092;11.556;2023-12-20T21:29:52;4.90;99.90
5419;DHT22;2732;52.092;11.556;2023-12-20T21:34:53;4.90;99.90
5419;DHT22;2732;52.092;11.556;2023-12-20T21:39:54;5.00;99.90
5419;DHT22;2732;52.092;11.556;2023-12-20T21:44:54;4.90;99.90
5419;DHT22;2732;52.092;11.556;2023-12-20T21:49:55;5.00;99.90
5419;DHT22;2732;52.092;11.556;2023-12-20T21:54:55;5.00;99.90
5419;DHT22;2732;52.092;11.556;2023-12-20T21:59:56;5.00;99.90
5419;DHT22;2732;52.092;11.556;2023-12-20T22:04:58;5.00;99.90
5419;DHT22;2732;52.092;11.556;2023-12-20T22:09:59;5.00;99.90
5419;DHT22;2732;52.092;11.556;2023-12-20T22:15:00;5.00;99.90
5419;DHT22;2732;52.092;11.556;2023-12-20T22:20:01;5.00;99.90
5419;DHT22;2732;52.092;11.556;2023-12-20T22:25:01;5.00;99.90
5419;DHT22;2732;52.092;11.556;2023-12-20T22:30:03;5.00;99.90
5419;DHT22;2732;52.092;11.556;2023-12-20T22:35:05;5.10;99.90
5419;DHT22;2732;52.092;11.556;2023-12-20T22:40:07;5.10;99.90
5419;DHT22;2732;52.092;11.556;2023-12-20T22:45:10;5.10;99.90
5419;DHT22;2732;52.092;11.556;2023-12-20T22:50:10;5.10;99.90
5419;DHT22;2732;52.092;11.556;2023-12-20T22:55:11;5.10;99.90
5419;DHT22;2732;52.092;11.556;2023-12-20T23:00:12;5.20;99.90
5419;DHT22;2732;52.092;11.556;2023-12-20T23:05:17;5.20;99.90
5419;DHT22;2732;52.092;11.556;2023-12-20T23:10:18;5.20;99.90
5419;DHT22;2732;52.092;11.556;2023-12-20T23:15:24;5.20;99.90
5419;DHT22;2732;52.092;11.556;2023-12-20T23:20:25;5.20;99.90
5419;DHT22;2732;52.092;11.556;2023-12-20T23:25:25;5.20;99.90
5419;DHT22;2732;52.092;11.556;2023-12-20T23:30:26;5.20;99.90
5419;DHT22;2732;52.092;11.556;2023-12-20T23:35:26;5.30;99.90
5419;DHT22;2732;52.092;11.556;2023-12-20T23:40:27;5.30;99.90
5419;DHT22;2732;52.092;11.556;2023-12-20T23:45:28;5.30;99.90
5419;DHT22;2732;52.092;11.556;2023-12-20T23:50:28;5.40;99.90
5419;DHT22;2732;52.092;11.556;2023-12-20T23:55:29;5.40;99.90
